Time;durP1;ratioP1;P1;durP2;ratioP2;P2;SDS_P1;SDS_P2;PMS_P1;PMS_P2;Temp;Humidity;BMP_temperature;BMP_pressure;BME280_temperature;BME280_humidity;BME280_pressure;Samples;Min_cycle;Max_cycle;Signal;HPM_P1;HPM_P2
2023/04/06 00:01:56;;;;;;;7.68;5.00;;;22.30;31.90;;;;;;6152444;28;80413;-66
2023/04/06 00:04:57;;;;;;;8.48;5.22;;;22.30;32.00;;;;;;6152276;28;82073;-64
2023/04/06 00:07:57;;;;;;;8.32;5.22;;;22.30;32.00;;;;;;6153132;28;80359;-64
2023/04/06 00:10:58;;;;;;;9.13;4.93;;;22.30;32.10;;;;;;6140745;28;80918;-65
2023/04/06 00:13:58;;;;;;;8.93;5.22;;;22.30;32.10;;;;;;6152040;28;80494;-63
2023/04/06 00:16:59;;;;;;;9.45;5.55;;;22.30;32.10;;;;;;6153471;28;81310;-63
2023/04/06 00:20:00;;;;;;;7.65;4.63;;;22.30;32.20;;;;;;6134522;28;82934;-62
2023/04/06 00:23:00;;;;;;;8.48;5.18;;;22.30;32.20;;;;;;6150934;28;80945;-63
2023/04/06 00:26:01;;;;;;;9.27;5.03;;;22.30;32.20;;;;;;6151775;28;81931;-64
2023/04/06 00:29:01;;;;;;;9.90;5.38;;;22.30;32.80;;;;;;6130203;28;82583;-65
2023/04/06 00:32:03;;;;;;;9.35;4.97;;;22.30;32.20;;;;;;6128128;28;81003;-65
2023/04/06 00:35:03;;;;;;;9.80;5.43;;;22.30;32.20;;;;;;6127144;28;80420;-66
2023/04/06 00:38:04;;;;;;;7.38;4.70;;;22.20;32.20;;;;;;6110730;28;82373;-65
2023/04/06 00:41:05;;;;;;;9.63;5.68;;;22.20;32.20;;;;;;6128265;28;80250;-64
2023/04/06 00:44:05;;;;;;;8.77;5.38;;;22.30;32.20;;;;;;6127055;28;81508;-64
2023/04/06 00:47:05;;;;;;;9.75;5.53;;;22.20;32.10;;;;;;6126694;28;80142;-64
2023/04/06 00:50:06;;;;;;;8.07;4.82;;;22.30;32.30;;;;;;6119041;28;82739;-64
2023/04/06 00:53:07;;;;;;;8.90;5.93;;;22.20;32.30;;;;;;6126678;28;80539;-64
2023/04/06 00:56:09;;;;;;;8.25;4.63;;;22.20;32.40;;;;;;6110051;28;83765;-68
2023/04/06 00:59:21;;;;;;;8.95;5.75;;;22.20;32.40;;;;;;6108423;28;81727;-68
2023/04/06 01:02:22;;;;;;;9.02;5.10;;;22.20;32.40;;;;;;6109259;28;83418;-71
2023/04/06 01:05:25;;;;;;;9.15;5.07;;;22.20;32.40;;;;;;6107480;28;82855;-68
2023/04/06 01:08:29;;;;;;;10.02;5.43;;;22.20;32.50;;;;;;6123257;28;84860;-69
2023/04/06 01:11:43;;;;;;;8.93;5.20;;;22.20;32.50;;;;;;6109760;28;82979;-69
2023/04/06 01:14:49;;;;;;;9.43;5.03;;;22.30;32.60;;;;;;6108074;28;81831;-69
2023/04/06 01:17:50;;;;;;;9.00;5.57;;;22.20;32.40;;;;;;6125191;28;81696;-70
2023/04/06 01:20:51;;;;;;;12.50;5.97;;;22.30;32.60;;;;;;6110159;28;83687;-71
2023/04/06 01:23:52;;;;;;;9.13;5.30;;;22.30;32.60;;;;;;6120768;28;85879;-70
2023/04/06 01:27:00;;;;;;;8.80;4.97;;;22.20;32.60;;;;;;6128250;28;82413;-70
2023/04/06 01:30:08;;;;;;;8.88;5.85;;;22.20;32.50;;;;;;6108749;28;82336;-70
2023/04/06 01:33:24;;;;;;;9.55;5.53;;;22.20;32.50;;;;;;6153916;28;82659;-70
2023/04/06 01:36:34;;;;;;;7.93;5.00;;;22.20;32.40;;;;;;6153750;28;83334;-71
2023/04/06 01:39:49;;;;;;;9.60;5.60;;;22.20;32.40;;;;;;6154176;28;82137;-71
2023/04/06 01:42:59;;;;;;;9.02;5.40;;;22.20;32.50;;;;;;6153477;28;82616;-69
2023/04/06 01:46:06;;;;;;;10.07;5.75;;;22.20;32.60;;;;;;6152991;28;83305;-67
2023/04/06 01:49:10;;;;;;;11.20;5.75;;;22.20;32.50;;;;;;6154464;28;83405;-70
2023/04/06 01:52:15;;;;;;;9.95;5.35;;;22.20;32.40;;;;;;6152559;28;83605;-71
2023/04/06 01:55:19;;;;;;;13.35;6.50;;;22.20;32.40;;;;;;6153842;28;81624;-68
2023/04/06 01:58:40;;;;;;;16.95;6.28;;;22.20;32.40;;;;;;6145836;28;81642;-68
2023/04/06 02:01:40;;;;;;;11.93;6.65;;;22.20;32.40;;;;;;6152676;28;82740;-68
2023/04/06 02:04:41;;;;;;;11.75;6.18;;;22.10;32.40;;;;;;6153567;28;83257;-68
2023/04/06 02:07:46;;;;;;;12.65;6.32;;;22.10;32.30;;;;;;6153718;28;83022;-68
2023/04/06 02:10:50;;;;;;;14.88;7.00;;;22.10;32.30;;;;;;6152136;28;83275;-70
2023/04/06 02:14:00;;;;;;;14.55;7.03;;;22.10;32.30;;;;;;6153677;28;84189;-69
2023/04/06 02:17:04;;;;;;;13.52;6.88;;;22.10;32.30;;;;;;6142824;28;81109;-69
2023/04/06 02:20:05;;;;;;;12.50;5.90;;;22.10;32.30;;;;;;6154224;28;80779;-70
2023/04/06 02:23:06;;;;;;;14.68;7.50;;;22.10;32.20;;;;;;6151818;28;81891;-66
2023/04/06 02:26:06;;;;;;;15.55;6.75;;;22.10;32.20;;;;;;6154304;28;80321;-67
2023/04/06 02:29:07;;;;;;;13.63;7.20;;;22.10;32.20;;;;;;6149402;28;82590;-66
2023/04/06 02:32:07;;;;;;;13.82;7.25;;;22.10;32.30;;;;;;6130494;28;80575;-65
2023/04/06 02:35:08;;;;;;;14.23;7.53;;;22.10;32.20;;;;;;6113856;28;83070;-65
2023/04/06 02:38:09;;;;;;;11.55;6.70;;;22.20;32.30;;;;;;6111443;28;83673;-65
2023/04/06 02:41:10;;;;;;;14.20;6.70;;;22.20;32.30;;;;;;6112050;28;81419;-65
2023/04/06 02:44:12;;;;;;;10.88;5.80;;;22.10;32.20;;;;;;6111899;28;83378;-68
2023/04/06 02:47:16;;;;;;;10.75;6.15;;;22.20;32.30;;;;;;6112271;28;83577;-70
2023/04/06 02:50:21;;;;;;;14.87;7.43;;;22.20;32.30;;;;;;6111694;28;83223;-69
2023/04/06 02:53:29;;;;;;;12.73;6.55;;;22.20;32.30;;;;;;6129095;28;86449;-68
2023/04/06 02:56:30;;;;;;;13.38;7.03;;;22.10;32.20;;;;;;6129207;28;83034;-72
2023/04/06 02:59:31;;;;;;;14.32;6.35;;;22.10;32.20;;;;;;6128599;28;82942;-70
2023/04/06 03:02:47;;;;;;;13.82;6.63;;;22.10;32.40;;;;;;6128016;28;83640;-68
2023/04/06 03:05:50;;;;;;;11.20;6.20;;;22.10;32.30;;;;;;6128332;28;82505;-69
2023/04/06 03:08:57;;;;;;;9.60;6.55;;;22.10;32.20;;;;;;6127962;28;80238;-65
2023/04/06 03:11:58;;;;;;;14.75;6.18;;;22.10;32.10;;;;;;6127448;28;83192;-65
2023/04/06 03:14:59;;;;;;;10.25;5.95;;;22.10;32.40;;;;;;6127677;28;83396;-64
2023/04/06 03:18:01;;;;;;;13.02;6.85;;;22.20;32.20;;;;;;6126033;28;80452;-64
2023/04/06 03:21:12;;;;;;;10.15;6.63;;;22.20;31.80;;;;;;6127865;28;83131;-67
2023/04/06 03:24:22;;;;;;;12.48;6.40;;;22.30;31.60;;;;;;6128729;28;83652;-67
2023/04/06 03:27:23;;;;;;;14.40;7.68;;;22.30;31.30;;;;;;6128405;28;80860;-64
2023/04/06 03:30:25;;;;;;;12.60;6.68;;;22.40;31.30;;;;;;6136953;28;80638;-65
2023/04/06 03:33:27;;;;;;;12.52;6.28;;;22.40;31.00;;;;;;6151976;28;80275;-64
2023/04/06 03:36:30;;;;;;;10.88;6.28;;;22.50;31.10;;;;;;6135125;28;83490;-65
2023/04/06 03:39:31;;;;;;;11.32;6.32;;;22.50;31.00;;;;;;6134531;28;81901;-63
2023/04/06 03:42:33;;;;;;;10.50;6.13;;;22.60;31.00;;;;;;6134465;28;81299;-62
2023/04/06 03:45:40;;;;;;;12.23;6.97;;;22.60;30.90;;;;;;6126066;28;82783;-64
2023/04/06 03:48:40;;;;;;;12.55;6.38;;;22.60;30.90;;;;;;6131031;28;81816;-66
2023/04/06 03:51:41;;;;;;;11.60;6.68;;;22.70;31.70;;;;;;6133424;28;82534;-66
2023/04/06 03:54:42;;;;;;;11.75;6.45;;;22.70;31.00;;;;;;6131943;28;83596;-65
2023/04/06 03:57:44;;;;;;;14.65;7.40;;;22.70;31.20;;;;;;6149281;28;81330;-66
2023/04/06 04:00:45;;;;;;;16.52;7.25;;;22.80;31.10;;;;;;6148845;28;85624;-68
2023/04/06 04:03:46;;;;;;;12.77;7.07;;;22.70;31.00;;;;;;6149893;28;80363;-71
2023/04/06 04:06:48;;;;;;;16.75;6.85;;;22.70;31.00;;;;;;6150258;28;80720;-66
2023/04/06 04:09:48;;;;;;;12.70;7.10;;;22.70;30.80;;;;;;6133973;28;80322;-63
2023/04/06 04:12:49;;;;;;;11.40;6.78;;;22.70;30.90;;;;;;6146347;28;80455;-61
2023/04/06 04:15:50;;;;;;;12.80;7.53;;;22.70;31.00;;;;;;6149400;28;80566;-68
2023/04/06 04:18:50;;;;;;;16.25;7.68;;;22.70;30.90;;;;;;6150373;28;82046;-69
2023/04/06 04:21:51;;;;;;;18.92;6.80;;;22.80;31.30;;;;;;6145496;28;80823;-69
2023/04/06 04:24:58;;;;;;;17.10;7.35;;;22.80;31.50;;;;;;6131623;28;80362;-67
2023/04/06 04:27:59;;;;;;;15.07;7.38;;;22.90;31.20;;;;;;6134633;28;82394;-73
2023/04/06 04:31:00;;;;;;;15.40;7.65;;;22.90;31.50;;;;;;6136031;28;81556;-71
2023/04/06 04:34:06;;;;;;;13.77;6.93;;;22.90;31.20;;;;;;6148423;28;80747;-65
2023/04/06 04:37:07;;;;;;;14.48;7.22;;;22.90;31.00;;;;;;6149541;28;82162;-63
2023/04/06 04:40:23;;;;;;;19.70;7.45;;;22.90;31.00;;;;;;6152317;28;81177;-71
2023/04/06 04:43:28;;;;;;;14.63;7.27;;;22.90;30.80;;;;;;6151156;28;80423;-70
2023/04/06 04:46:29;;;;;;;16.30;7.57;;;22.90;31.00;;;;;;6148565;28;83050;-62
2023/04/06 04:49:30;;;;;;;14.95;7.72;;;22.90;31.00;;;;;;6149123;28;82601;-67
2023/04/06 04:52:31;;;;;;;11.80;7.63;;;22.90;31.10;;;;;;6151133;28;80389;-73
2023/04/06 04:55:45;;;;;;;16.92;6.53;;;22.90;31.10;;;;;;6134329;28;83480;-71
2023/04/06 04:58:47;;;;;;;14.32;7.20;;;22.90;30.90;;;;;;6154314;28;80505;-73
2023/04/06 05:01:48;;;;;;;15.10;7.70;;;22.90;30.80;;;;;;6169042;28;81389;-73
2023/04/06 05:04:48;;;;;;;15.60;8.35;;;22.90;30.70;;;;;;6172778;28;80390;-72
2023/04/06 05:07:54;;;;;;;;;;;22.90;30.70;;;;;;6169584;28;83063;-73
2023/04/06 05:11:09;;;;;;;15.30;7.55;;;22.90;30.60;;;;;;6162724;28;81939;-72
2023/04/06 05:14:15;;;;;;;16.08;7.00;;;22.90;30.50;;;;;;6131433;28;80548;-72
2023/04/06 05:17:16;;;;;;;15.40;8.30;;;22.90;30.50;;;;;;6127038;28;83290;-72
2023/04/06 05:20:16;;;;;;;15.93;8.00;;;22.90;30.70;;;;;;6145733;28;83464;-72
2023/04/06 05:23:22;;;;;;;14.82;8.52;;;22.80;30.50;;;;;;6121106;28;83585;-69
2023/04/06 05:26:24;;;;;;;16.20;8.00;;;22.80;30.30;;;;;;6148972;28;83446;-69
2023/04/06 05:29:28;;;;;;;16.05;7.78;;;22.80;30.20;;;;;;6138720;28;87513;-70
2023/04/06 05:32:29;;;;;;;16.23;8.02;;;22.70;30.40;;;;;;6099300;28;82131;-72
2023/04/06 05:35:30;;;;;;;16.55;9.07;;;22.70;30.30;;;;;;6114448;28;82884;-72
2023/04/06 05:38:35;;;;;;;13.40;7.93;;;22.70;30.20;;;;;;6130938;28;82588;-70
2023/04/06 05:41:45;;;;;;;12.85;7.32;;;22.70;30.30;;;;;;6115109;28;83238;-66
2023/04/06 05:44:46;;;;;;;16.08;8.32;;;22.70;30.10;;;;;;6112516;28;83598;-69
2023/04/06 05:47:49;;;;;;;17.13;7.28;;;22.70;30.20;;;;;;6103776;28;83490;-68
2023/04/06 05:51:00;;;;;;;13.80;8.23;;;22.70;30.30;;;;;;6102296;28;82285;-71
2023/04/06 05:54:09;;;;;;;13.57;7.55;;;22.60;30.30;;;;;;6106700;28;81859;-69
2023/04/06 05:57:10;;;;;;;13.45;7.93;;;22.60;30.30;;;;;;6108153;28;81619;-68
2023/04/06 06:00:11;;;;;;;12.38;7.43;;;22.60;30.40;;;;;;6119344;28;82578;-65
2023/04/06 06:03:20;;;;;;;13.57;7.57;;;22.60;30.50;;;;;;6097532;28;83716;-70
2023/04/06 06:06:25;;;;;;;14.07;8.18;;;22.50;30.10;;;;;;6110303;28;83950;-72
2023/04/06 06:09:43;;;;;;;15.68;8.20;;;22.40;30.10;;;;;;6126508;28;83833;-76
2023/04/06 06:12:52;;;;;;;12.43;6.50;;;22.40;30.30;;;;;;6132146;28;83672;-72
2023/04/06 06:15:53;;;;;;;11.50;7.53;;;22.30;30.40;;;;;;6114354;28;83388;-72
2023/04/06 06:18:55;;;;;;;12.55;7.20;;;22.20;30.20;;;;;;6130745;28;80363;-73
2023/04/06 06:21:56;;;;;;;13.45;7.28;;;22.20;30.30;;;;;;6117789;28;83309;-75
2023/04/06 06:24:57;;;;;;;23.92;7.18;;;22.10;30.50;;;;;;6114546;28;83350;-76
2023/04/06 06:27:58;;;;;;;11.10;6.63;;;22.10;30.30;;;;;;6108890;28;82384;-73
2023/04/06 06:31:00;;;;;;;12.52;7.07;;;22.10;30.10;;;;;;6123973;28;82160;-73
2023/04/06 06:34:01;;;;;;;11.07;6.63;;;22.00;30.10;;;;;;6144137;28;83035;-74
2023/04/06 06:37:04;;;;;;;10.93;6.03;;;22.00;30.00;;;;;;6151871;28;83190;-74
2023/04/06 06:40:05;;;;;;;13.93;6.82;;;21.90;29.90;;;;;;6150246;28;82514;-73
2023/04/06 06:43:08;;;;;;;12.93;6.70;;;21.90;29.90;;;;;;6150273;28;81465;-74
2023/04/06 06:46:32;;;;;;;12.50;6.30;;;21.90;29.90;;;;;;6144307;28;81661;-74
2023/04/06 06:49:33;;;;;;;11.50;6.72;;;21.80;29.90;;;;;;6153469;28;82645;-74
2023/04/06 06:52:34;;;;;;;15.52;6.70;;;21.90;29.90;;;;;;6154675;28;80579;-75
2023/04/06 06:55:34;;;;;;;12.50;6.63;;;21.80;29.90;;;;;;6150421;28;83764;-75
2023/04/06 06:58:35;;;;;;;13.23;6.75;;;21.80;29.90;;;;;;6152721;28;83598;-74
2023/04/06 07:01:35;;;;;;;10.95;5.80;;;21.80;29.90;;;;;;6141547;28;80867;-72
2023/04/06 07:04:36;;;;;;;10.60;6.15;;;21.80;29.90;;;;;;6129465;28;80788;-73
2023/04/06 07:07:37;;;;;;;12.00;6.45;;;21.70;29.80;;;;;;6128252;28;83133;-73
2023/04/06 07:10:38;;;;;;;12.77;6.65;;;21.70;29.90;;;;;;6144618;28;85004;-73
2023/04/06 07:13:38;;;;;;;9.43;5.70;;;21.70;29.90;;;;;;6152610;28;83384;-73
2023/04/06 07:16:39;;;;;;;9.48;5.57;;;21.70;30.00;;;;;;6153172;28;80469;-73
2023/04/06 07:19:39;;;;;;;12.70;5.35;;;21.70;29.90;;;;;;6152492;28;81979;-72
2023/04/06 07:22:40;;;;;;;8.57;5.43;;;21.70;30.00;;;;;;6153429;28;81394;-73
2023/04/06 07:25:41;;;;;;;10.73;5.38;;;21.70;30.70;;;;;;6154012;28;80513;-72
2023/04/06 07:28:43;;;;;;;9.43;5.50;;;21.70;30.50;;;;;;6150649;28;83672;-71
2023/04/06 07:31:46;;;;;;;8.43;5.20;;;21.80;30.50;;;;;;6148267;28;83551;-71
2023/04/06 07:34:47;;;;;;;12.27;5.72;;;21.90;30.30;;;;;;6153838;28;80551;-71
2023/04/06 07:37:48;;;;;;;7.30;5.10;;;21.90;29.90;;;;;;6156014;28;81790;-73
2023/04/06 07:40:48;;;;;;;11.18;5.75;;;22.00;29.60;;;;;;6151317;28;83676;-62
2023/04/06 07:43:49;;;;;;;9.20;5.13;;;22.00;29.50;;;;;;6152115;28;83256;-62
2023/04/06 07:46:50;;;;;;;7.50;4.70;;;22.10;29.40;;;;;;6129013;28;82629;-62
2023/04/06 07:49:52;;;;;;;8.77;5.25;;;22.10;29.20;;;;;;6157640;28;83472;-62
2023/04/06 07:52:52;;;;;;;8.02;5.30;;;22.10;29.10;;;;;;6133263;28;84151;-62
2023/04/06 07:55:53;;;;;;;14.32;4.50;;;22.20;29.10;;;;;;6151263;28;82533;-63
2023/04/06 07:58:57;;;;;;;18.38;5.05;;;22.20;29.00;;;;;;6150979;28;80440;-59
2023/04/06 08:01:58;;;;;;;23.33;5.47;;;22.20;28.60;;;;;;6151372;28;80710;-58
2023/04/06 08:04:58;;;;;;;23.08;5.03;;;22.30;28.90;;;;;;6153368;28;81601;-58
2023/04/06 08:07:59;;;;;;;17.92;4.85;;;22.30;29.10;;;;;;6151159;28;80193;-58
2023/04/06 08:11:02;;;;;;;11.52;4.45;;;22.40;29.30;;;;;;6150928;28;80943;-58
2023/04/06 08:14:02;;;;;;;13.50;4.85;;;22.40;29.20;;;;;;6149766;28;80269;-58
2023/04/06 08:17:03;;;;;;;11.00;4.57;;;22.40;29.10;;;;;;6152248;28;81278;-61
2023/04/06 08:20:04;;;;;;;10.82;4.82;;;22.40;28.80;;;;;;6151628;28;81168;-62
2023/04/06 08:23:04;;;;;;;8.35;3.85;;;22.40;28.80;;;;;;6151791;28;81125;-64
2023/04/06 08:26:05;;;;;;;8.23;4.88;;;22.40;28.80;;;;;;6152403;28;81406;-66
2023/04/06 08:29:08;;;;;;;7.63;5.28;;;22.40;28.60;;;;;;6151018;28;81022;-68
2023/04/06 08:32:09;;;;;;;8.75;4.95;;;22.30;27.90;;;;;;6152146;28;83409;-69
2023/04/06 08:35:09;;;;;;;7.18;4.95;;;22.10;27.30;;;;;;6153380;28;81714;-61
2023/04/06 08:38:10;;;;;;;7.75;4.95;;;22.00;27.30;;;;;;6151424;28;81335;-61
2023/04/06 08:41:10;;;;;;;8.60;4.68;;;21.90;27.80;;;;;;6151190;28;80958;-60
2023/04/06 08:44:11;;;;;;;11.70;4.57;;;21.90;27.50;;;;;;6151242;28;80491;-60
2023/04/06 08:47:12;;;;;;;8.02;4.50;;;21.90;27.80;;;;;;6151780;28;80106;-60
2023/04/06 08:50:12;;;;;;;8.48;4.78;;;21.90;27.90;;;;;;6126231;28;83396;-66
2023/04/06 08:53:13;;;;;;;8.93;4.28;;;21.90;28.00;;;;;;6153473;28;80996;-67
2023/04/06 08:56:13;;;;;;;8.68;4.32;;;21.90;28.20;;;;;;6154054;28;81784;-68
2023/04/06 08:59:14;;;;;;;5.68;3.95;;;21.90;28.30;;;;;;6152133;28;80564;-67
2023/04/06 09:02:15;;;;;;;7.32;4.45;;;21.90;28.40;;;;;;6153487;28;80529;-67
2023/04/06 09:05:15;;;;;;;5.57;3.58;;;21.90;28.50;;;;;;6151267;28;81493;-63
2023/04/06 09:08:16;;;;;;;5.75;3.17;;;21.80;28.70;;;;;;6153683;28;80465;-64
2023/04/06 09:11:16;;;;;;;8.00;3.97;;;21.90;28.80;;;;;;6141595;28;80390;-65
2023/04/06 09:14:17;;;;;;;10.10;4.13;;;22.00;28.70;;;;;;6112465;28;80972;-62
2023/04/06 09:17:17;;;;;;;6.65;4.00;;;22.00;29.10;;;;;;6148022;28;81006;-63
2023/04/06 09:20:18;;;;;;;11.45;3.88;;;22.00;31.70;;;;;;6147399;28;81016;-63
2023/04/06 09:23:19;;;;;;;9.63;3.80;;;22.00;31.90;;;;;;6149974;28;80326;-63
2023/04/06 09:26:19;;;;;;;9.40;4.50;;;22.00;31.40;;;;;;6151958;28;80842;-64
2023/04/06 09:29:21;;;;;;;5.90;3.88;;;22.00;31.20;;;;;;6143419;28;80893;-63
2023/04/06 09:32:22;;;;;;;9.10;3.90;;;22.00;30.70;;;;;;6122850;28;80430;-63
2023/04/06 09:35:22;;;;;;;7.82;3.95;;;21.90;30.40;;;;;;6124994;28;80867;-62
2023/04/06 09:38:23;;;;;;;6.43;4.00;;;21.90;30.20;;;;;;6129470;28;80945;-63
2023/04/06 09:41:24;;;;;;;6.13;3.75;;;21.90;30.10;;;;;;6131558;28;81146;-62
2023/04/06 09:44:24;;;;;;;5.97;3.65;;;21.90;30.00;;;;;;6132182;28;81111;-61
2023/04/06 09:47:26;;;;;;;4.75;3.10;;;21.90;30.10;;;;;;6132214;28;81101;-63
2023/04/06 09:50:26;;;;;;;7.50;3.50;;;21.90;29.90;;;;;;6128781;28;81687;-63
2023/04/06 09:53:27;;;;;;;5.47;4.20;;;21.90;30.00;;;;;;6132025;28;80217;-62
2023/04/06 09:56:27;;;;;;;7.50;3.75;;;21.90;29.90;;;;;;6131161;28;81516;-61
2023/04/06 09:59:28;;;;;;;9.55;3.72;;;21.80;29.90;;;;;;6130754;28;84882;-62
2023/04/06 10:02:29;;;;;;;9.18;3.83;;;21.80;29.90;;;;;;6130307;28;81672;-61
2023/04/06 10:05:29;;;;;;;8.02;3.08;;;21.90;30.00;;;;;;6128108;28;80306;-66
2023/04/06 10:08:30;;;;;;;4.90;3.63;;;21.90;30.00;;;;;;6132425;28;81152;-62
2023/04/06 10:11:30;;;;;;;5.80;3.13;;;22.00;30.10;;;;;;6130991;28;80367;-72
2023/04/06 10:14:31;;;;;;;5.20;3.65;;;22.00;30.20;;;;;;6122446;28;80349;-68
2023/04/06 10:17:31;;;;;;;4.88;3.35;;;22.10;30.30;;;;;;6129032;28;80402;-67
2023/04/06 10:20:32;;;;;;;8.93;3.40;;;22.10;30.20;;;;;;6133246;28;80324;-68
2023/04/06 10:23:32;;;;;;;5.85;3.90;;;22.10;30.50;;;;;;6132917;28;80368;-62
2023/04/06 10:26:33;;;;;;;5.45;3.75;;;22.10;30.80;;;;;;6132329;28;80248;-63
2023/04/06 10:29:33;;;;;;;4.93;3.30;;;22.20;31.00;;;;;;6125477;28;81707;-63
2023/04/06 10:32:35;;;;;;;7.45;3.45;;;22.10;30.90;;;;;;6128812;28;81990;-63
2023/04/06 10:35:36;;;;;;;4.32;3.53;;;22.10;31.20;;;;;;6131593;28;80709;-61
2023/04/06 10:38:36;;;;;;;5.28;3.53;;;22.10;31.20;;;;;;6129861;28;80400;-59
2023/04/06 10:41:37;;;;;;;6.13;3.65;;;22.10;31.20;;;;;;6131013;28;80580;-61
2023/04/06 10:44:37;;;;;;;8.05;3.50;;;22.20;31.30;;;;;;6128086;28;81716;-61
2023/04/06 10:47:38;;;;;;;5.63;3.72;;;22.20;31.30;;;;;;6127026;28;81215;-61
2023/04/06 10:50:38;;;;;;;4.45;3.38;;;22.20;31.30;;;;;;6130315;28;80848;-62
2023/04/06 10:53:39;;;;;;;5.72;3.78;;;22.20;31.30;;;;;;6129124;28;80850;-63
2023/04/06 10:56:39;;;;;;;5.70;3.72;;;22.20;31.30;;;;;;6121266;28;80464;-61
2023/04/06 10:59:40;;;;;;;8.45;4.15;;;22.20;31.50;;;;;;6129970;28;80368;-62
2023/04/06 11:02:41;;;;;;;6.22;4.22;;;22.30;31.30;;;;;;6127084;28;80512;-64
2023/04/06 11:05:41;;;;;;;5.22;3.55;;;22.30;31.30;;;;;;6129319;28;80631;-64
2023/04/06 11:08:42;;;;;;;5.78;4.00;;;22.30;31.30;;;;;;6130467;28;80326;-64
2023/04/06 11:11:42;;;;;;;7.35;4.03;;;22.30;31.30;;;;;;6130306;28;80520;-63
2023/04/06 11:14:43;;;;;;;6.50;4.10;;;22.30;31.30;;;;;;6131431;28;80742;-64
2023/04/06 11:17:44;;;;;;;8.45;3.75;;;22.40;31.40;;;;;;6128242;28;81982;-64
2023/04/06 11:20:45;;;;;;;6.13;4.38;;;22.40;31.40;;;;;;6131908;28;80508;-65
2023/04/06 11:23:45;;;;;;;8.45;4.85;;;22.40;31.40;;;;;;6130244;28;80364;-66
2023/04/06 11:26:48;;;;;;;9.57;4.97;;;22.50;31.40;;;;;;6130231;28;80795;-63
2023/04/06 11:29:49;;;;;;;5.07;4.03;;;22.40;31.40;;;;;;6119600;28;81658;-65
2023/04/06 11:32:50;;;;;;;16.65;4.35;;;22.50;31.40;;;;;;6129909;28;80463;-66
2023/04/06 11:35:50;;;;;;;8.68;4.82;;;22.60;31.50;;;;;;6105860;28;81594;-66
2023/04/06 11:38:51;;;;;;;6.05;3.78;;;22.60;31.50;;;;;;6131201;28;80465;-59
2023/04/06 11:41:51;;;;;;;7.75;3.95;;;22.70;31.50;;;;;;6130951;28;80300;-60
2023/04/06 11:44:52;;;;;;;15.15;4.45;;;22.70;31.50;;;;;;6127249;28;81022;-55
2023/04/06 11:47:53;;;;;;;10.38;4.80;;;22.80;32.50;;;;;;6130778;28;80718;-56
2023/04/06 11:50:53;;;;;;;7.80;4.07;;;22.90;31.90;;;;;;6130662;28;81535;-57
2023/04/06 11:53:54;;;;;;;7.78;3.53;;;22.90;31.70;;;;;;6130077;28;80371;-58
2023/04/06 11:56:55;;;;;;;8.52;3.85;;;23.00;31.90;;;;;;6130701;28;80748;-60
2023/04/06 11:59:56;;;;;;;6.93;4.97;;;22.90;31.90;;;;;;6126793;28;82133;-62
2023/04/06 12:02:56;;;;;;;9.73;5.40;;;22.70;31.50;;;;;;6128205;28;84544;-61
2023/04/06 12:05:57;;;;;;;9.20;4.72;;;22.50;31.40;;;;;;6129123;28;81125;-60
2023/04/06 12:08:58;;;;;;;10.63;6.60;;;22.40;31.50;;;;;;6129027;28;80303;-62
2023/04/06 12:11:58;;;;;;;12.02;7.10;;;22.20;31.70;;;;;;6116896;28;80364;-62
2023/04/06 12:14:59;;;;;;;10.98;5.40;;;22.10;32.30;;;;;;6127060;28;80304;-68
2023/04/06 12:18:00;;;;;;;9.25;5.35;;;22.00;32.40;;;;;;6117272;28;80862;-68
2023/04/06 12:21:00;;;;;;;9.00;5.88;;;21.90;32.50;;;;;;6128484;28;80959;-67
2023/04/06 12:24:01;;;;;;;12.05;5.28;;;21.80;32.50;;;;;;6110250;28;80658;-67
2023/04/06 12:27:02;;;;;;;10.90;5.47;;;21.70;32.50;;;;;;6127651;28;80638;-63
2023/04/06 12:30:02;;;;;;;12.50;5.90;;;21.60;32.70;;;;;;6114485;28;83815;-66
2023/04/06 12:33:03;;;;;;;8.45;5.78;;;21.50;32.90;;;;;;6125153;28;80373;-66
2023/04/06 12:36:03;;;;;;;15.00;5.60;;;21.50;32.80;;;;;;6124708;28;80617;-69
2023/04/06 12:39:04;;;;;;;8.63;5.25;;;21.30;32.90;;;;;;6124783;28;80538;-67
2023/04/06 12:42:04;;;;;;;9.45;5.68;;;21.30;33.00;;;;;;6124851;28;80880;-67
2023/04/06 12:45:05;;;;;;;9.25;4.70;;;21.20;33.00;;;;;;6124310;28;81101;-66
2023/04/06 12:48:05;;;;;;;7.43;5.15;;;21.20;33.00;;;;;;6123817;28;82780;-66
2023/04/06 12:51:06;;;;;;;9.88;5.80;;;21.10;33.30;;;;;;6124483;28;80329;-66
2023/04/06 12:54:06;;;;;;;9.55;6.45;;;21.10;33.10;;;;;;6097385;28;83501;-67
2023/04/06 12:57:07;;;;;;;10.43;5.00;;;20.90;33.20;;;;;;6121554;28;80512;-67
2023/04/06 13:00:08;;;;;;;8.80;5.00;;;21.00;33.40;;;;;;6125623;28;80505;-65
2023/04/06 13:03:09;;;;;;;7.97;4.63;;;21.10;33.10;;;;;;6126305;28;80983;-71
2023/04/06 13:06:09;;;;;;;7.10;4.57;;;21.20;33.10;;;;;;6111451;28;80659;-61
2023/04/06 13:09:10;;;;;;;7.05;4.68;;;21.40;33.30;;;;;;6126465;28;81379;-72
2023/04/06 13:12:10;;;;;;;9.20;4.45;;;21.50;33.60;;;;;;6127097;28;80592;-73
2023/04/06 13:15:11;;;;;;;9.13;5.68;;;21.70;33.50;;;;;;6117682;28;80956;-65
2023/04/06 13:18:11;;;;;;;10.60;5.40;;;21.70;33.50;;;;;;6132708;28;81153;-70
2023/04/06 13:21:12;;;;;;;6.55;4.65;;;21.80;33.50;;;;;;6129947;28;80660;-67
2023/04/06 13:24:12;;;;;;;8.43;5.03;;;21.90;33.50;;;;;;6132424;28;80449;-71
2023/04/06 13:27:13;;;;;;;7.82;4.78;;;22.00;33.50;;;;;;6132226;28;81147;-63
2023/04/06 13:30:14;;;;;;;6.78;4.57;;;22.10;33.40;;;;;;6131652;28;80713;-65
2023/04/06 13:33:14;;;;;;;5.82;4.00;;;22.10;33.40;;;;;;6152295;28;80425;-63
2023/04/06 13:36:16;;;;;;;6.15;4.50;;;22.20;33.40;;;;;;6152292;28;80428;-64
2023/04/06 13:39:16;;;;;;;6.85;4.85;;;22.20;33.40;;;;;;6140571;28;80582;-62
2023/04/06 13:42:17;;;;;;;9.80;4.97;;;22.20;33.40;;;;;;6149854;28;80802;-63
2023/04/06 13:45:17;;;;;;;7.65;4.85;;;22.30;33.60;;;;;;6152345;28;81989;-62
2023/04/06 13:48:18;;;;;;;7.03;4.57;;;22.30;33.60;;;;;;6150589;28;87575;-65
2023/04/06 13:51:18;;;;;;;7.20;4.57;;;22.30;33.70;;;;;;6143482;28;84777;-67
2023/04/06 13:54:19;;;;;;;7.82;4.85;;;22.40;33.70;;;;;;6153800;28;81142;-62
2023/04/06 13:57:20;;;;;;;9.38;4.22;;;22.40;33.80;;;;;;6147339;28;81406;-61
2023/04/06 14:00:20;;;;;;;8.48;4.43;;;22.50;33.80;;;;;;6142841;28;80989;-60
2023/04/06 14:03:21;;;;;;;7.07;4.18;;;22.50;33.90;;;;;;6155442;28;80401;-61
2023/04/06 14:06:21;;;;;;;9.88;4.43;;;22.50;33.70;;;;;;6155995;28;80493;-63
2023/04/06 14:09:22;;;;;;;6.15;4.05;;;22.60;33.70;;;;;;6157806;28;81218;-64
2023/04/06 14:12:22;;;;;;;7.63;4.53;;;22.60;33.70;;;;;;6159760;28;81247;-62
2023/04/06 14:15:23;;;;;;;7.20;4.47;;;22.60;33.70;;;;;;6150711;28;82518;-64
2023/04/06 14:18:24;;;;;;;6.72;4.47;;;22.60;34.10;;;;;;6154979;28;82369;-61
2023/04/06 14:21:25;;;;;;;6.53;4.45;;;22.60;33.70;;;;;;6156592;28;80871;-64
2023/04/06 14:24:26;;;;;;;6.65;4.93;;;22.50;33.70;;;;;;6169745;28;80898;-65
2023/04/06 14:27:26;;;;;;;8.80;5.55;;;22.50;33.30;;;;;;6155198;28;80731;-62
2023/04/06 14:30:27;;;;;;;8.02;4.80;;;22.30;33.20;;;;;;6136158;28;80799;-63
2023/04/06 14:33:28;;;;;;;9.65;5.10;;;22.30;33.20;;;;;;6129293;28;80550;-63
2023/04/06 14:36:29;;;;;;;8.55;4.88;;;22.20;33.30;;;;;;6120482;28;85505;-62
2023/04/06 14:39:29;;;;;;;9.20;5.40;;;22.10;33.50;;;;;;6105291;28;83230;-63
2023/04/06 14:42:30;;;;;;;8.50;5.18;;;22.00;33.60;;;;;;6125622;28;85828;-62
2023/04/06 14:45:30;;;;;;;10.98;5.68;;;22.00;33.90;;;;;;6120724;28;80469;-68
2023/04/06 14:48:31;;;;;;;8.00;5.70;;;21.90;34.20;;;;;;6125588;28;80805;-60
2023/04/06 14:51:32;;;;;;;9.75;5.20;;;21.90;34.50;;;;;;6126735;28;80434;-63
2023/04/06 14:54:32;;;;;;;11.55;6.35;;;21.90;34.70;;;;;;6126210;28;80899;-68
2023/04/06 14:57:33;;;;;;;17.20;10.00;;;21.90;34.90;;;;;;6122907;28;80590;-67
2023/04/06 15:00:34;;;;;;;16.15;10.43;;;21.90;35.80;;;;;;6118562;28;82775;-73
2023/04/06 15:03:34;;;;;;;16.50;9.95;;;21.80;35.20;;;;;;6117335;28;83296;-62
2023/04/06 15:06:35;;;;;;;18.85;9.70;;;21.80;35.30;;;;;;6122501;28;83721;-72
2023/04/06 15:09:35;;;;;;;14.48;9.07;;;21.80;35.50;;;;;;6125203;28;83403;-64
2023/04/06 15:12:36;;;;;;;14.70;7.80;;;21.70;35.60;;;;;;6124978;28;80626;-69
2023/04/06 15:15:37;;;;;;;13.02;7.38;;;21.70;35.40;;;;;;6115483;28;80803;-66
2023/04/06 15:18:38;;;;;;;10.85;7.65;;;21.70;35.60;;;;;;6118351;28;82154;-69
2023/04/06 15:21:38;;;;;;;12.73;6.65;;;21.70;35.60;;;;;;6118725;28;81284;-69
2023/04/06 15:24:39;;;;;;;11.65;6.35;;;21.70;35.50;;;;;;6112494;28;86541;-64
2023/04/06 15:27:39;;;;;;;11.50;6.82;;;21.80;35.60;;;;;;6119211;28;80992;-71
2023/04/06 15:30:40;;;;;;;13.98;6.45;;;21.90;35.50;;;;;;6121410;28;81259;-65
2023/04/06 15:33:40;;;;;;;9.57;6.45;;;21.90;35.40;;;;;;6143815;28;80583;-69
2023/04/06 15:36:43;;;;;;;8.70;6.07;;;21.90;35.30;;;;;;6144290;28;80544;-73
2023/04/06 15:39:43;;;;;;;9.50;6.00;;;21.90;35.10;;;;;;6148585;28;80653;-72
2023/04/06 15:42:44;;;;;;;9.18;5.68;;;21.90;34.80;;;;;;6148018;28;80273;-72